createdAt,value
2023-03-20T00:00:00.392Z,986.6
2023-03-20T00:10:00.377Z,986.5
2023-03-20T00:20:00.400Z,986.4
2023-03-20T00:30:00.412Z,986.5
2023-03-20T00:40:00.397Z,986.5
2023-03-20T00:50:00.392Z,986.5
2023-03-20T01:00:00.384Z,986.5
2023-03-20T01:10:00.385Z,986.5
2023-03-20T01:20:00.424Z,986.4
2023-03-20T01:30:00.368Z,986.3
2023-03-20T01:40:00.389Z,986.3
2023-03-20T01:50:00.378Z,986.2
2023-03-20T02:00:00.381Z,986.2
2023-03-20T02:10:00.407Z,986.2
2023-03-20T02:20:00.380Z,986.2
2023-03-20T02:30:00.381Z,986.2
2023-03-20T02:40:00.370Z,986.1
2023-03-20T02:50:00.376Z,986.1
2023-03-20T03:00:00.381Z,986.0
2023-03-20T03:10:00.394Z,986.0
2023-03-20T03:20:00.374Z,986.0
2023-03-20T03:30:00.381Z,986.0
2023-03-20T03:40:00.364Z,986.0
2023-03-20T03:50:00.371Z,986.0
2023-03-20T04:00:00.409Z,986.1
2023-03-20T04:10:00.381Z,986.2
2023-03-20T04:20:00.411Z,986.3
2023-03-20T04:30:00.374Z,986.4
2023-03-20T04:40:00.410Z,986.4
2023-03-20T04:50:00.376Z,986.4
2023-03-20T05:00:00.462Z,986.4
2023-03-20T05:10:00.414Z,986.5
2023-03-20T05:20:01.088Z,986.6
2023-03-20T05:30:00.287Z,986.6
2023-03-20T05:40:00.403Z,986.7
2023-03-20T05:50:00.289Z,986.8
2023-03-20T06:00:00.282Z,986.9
2023-03-20T06:10:00.301Z,986.9
2023-03-20T06:20:00.283Z,986.9
2023-03-20T06:30:00.298Z,986.9
2023-03-20T06:40:00.320Z,987.0
2023-03-20T06:50:00.277Z,987.1
2023-03-20T07:00:00.310Z,987.2
2023-03-20T07:10:00.289Z,987.1
2023-03-20T07:20:00.323Z,987.1
2023-03-20T07:30:00.281Z,987.2
2023-03-20T07:40:00.309Z,987.2
2023-03-20T07:50:00.280Z,987.2
2023-03-20T08:00:00.288Z,987.2
2023-03-20T08:10:00.316Z,987.3
2023-03-20T08:20:00.278Z,987.3
2023-03-20T08:30:00.300Z,987.4
2023-03-20T08:40:00.330Z,987.4
2023-03-20T08:50:00.283Z,987.4
2023-03-20T09:00:00.351Z,987.5
2023-03-20T09:10:00.282Z,987.5
2023-03-20T09:20:00.336Z,987.5
2023-03-20T09:30:00.278Z,987.5
2023-03-20T09:40:00.302Z,987.5
2023-03-20T09:50:00.282Z,987.5
2023-03-20T10:00:00.343Z,987.4
2023-03-20T10:10:00.317Z,987.5
2023-03-20T10:20:00.287Z,987.6
2023-03-20T10:30:00.278Z,987.6
2023-03-20T10:40:00.338Z,987.5
2023-03-20T10:50:00.303Z,987.4
2023-03-20T11:00:00.293Z,987.4
2023-03-20T11:10:00.283Z,987.3
2023-03-20T11:20:00.302Z,987.3
2023-03-20T11:30:00.294Z,987.1
2023-03-20T11:40:00.350Z,987.1
2023-03-20T11:50:00.267Z,987.0
2023-03-20T12:00:00.301Z,986.9
2023-03-20T12:10:00.276Z,986.9
2023-03-20T12:20:00.287Z,986.7
2023-03-20T12:30:00.312Z,986.6
2023-03-20T12:40:00.312Z,986.6
2023-03-20T12:50:00.289Z,986.5
2023-03-20T13:00:00.288Z,986.5
2023-03-20T13:10:00.282Z,986.4
2023-03-20T13:20:00.284Z,986.4
2023-03-20T13:30:00.297Z,986.2
2023-03-20T13:40:00.285Z,986.2
2023-03-20T13:50:00.285Z,986.1
2023-03-20T14:00:00.284Z,986.1
2023-03-20T14:10:00.330Z,986.0
2023-03-20T14:20:00.351Z,986.1
2023-03-20T14:30:00.317Z,985.9
2023-03-20T14:40:00.311Z,985.8
2023-03-20T14:50:00.274Z,985.8
2023-03-20T15:00:00.784Z,985.8
2023-03-20T15:10:00.278Z,985.8
2023-03-20T15:20:00.287Z,985.8
2023-03-20T15:30:00.313Z,985.8
2023-03-20T15:40:00.327Z,985.8
2023-03-20T15:50:00.356Z,985.9
2023-03-20T16:00:00.290Z,985.9
2023-03-20T16:10:00.274Z,985.8
2023-03-20T16:20:00.282Z,985.9
2023-03-20T16:30:00.281Z,986.1
2023-03-20T16:40:00.431Z,986.1
2023-03-20T16:50:00.352Z,986.2
2023-03-20T17:00:00.449Z,986.2
2023-03-20T17:10:00.286Z,986.2
2023-03-20T17:20:00.306Z,986.2
2023-03-20T17:30:00.298Z,986.3
2023-03-20T17:40:00.304Z,986.3
2023-03-20T17:50:00.328Z,986.3
2023-03-20T18:00:00.282Z,986.4
2023-03-20T18:10:00.288Z,986.5
2023-03-20T18:20:00.321Z,986.5
2023-03-20T18:30:00.339Z,986.6
2023-03-20T18:40:00.308Z,986.6
2023-03-20T18:50:00.311Z,986.6
2023-03-20T19:00:00.353Z,986.6
2023-03-20T19:10:00.278Z,986.6
2023-03-20T19:20:00.293Z,986.6
2023-03-20T19:30:00.289Z,986.6
2023-03-20T19:40:00.325Z,986.7
2023-03-20T19:50:00.281Z,986.5
2023-03-20T20:10:00.301Z,986.5
2023-03-20T20:20:00.326Z,986.4
2023-03-20T20:30:00.280Z,986.5
2023-03-20T20:40:00.327Z,986.4
2023-03-20T20:50:00.299Z,986.4
2023-03-20T21:00:00.295Z,986.5
2023-03-20T21:10:00.291Z,986.6
2023-03-20T21:20:00.274Z,986.5
2023-03-20T21:30:00.281Z,986.4
2023-03-20T21:40:00.326Z,986.4
2023-03-20T22:11:01.252Z,986.7
2023-03-20T22:20:58.979Z,986.7
2023-03-20T22:50:00.294Z,986.7
2023-03-20T23:00:00.374Z,986.6
2023-03-20T23:10:00.293Z,986.6
2023-03-20T23:20:11.024Z,986.6
2023-03-20T23:30:00.282Z,986.5
2023-03-20T23:40:00.420Z,986.5
2023-03-20T23:50:00.316Z,986.5
